Airfield :
LOGIN :

Register | Disclaimer

   EN    FR    IT 

 










Legend :    VFR   Marginal VFR   IFR   Intensive IFR   Very Intensive IFR
Visi :
Ceiling :
>= 8 km
>= 3000ft
5 to 8 km
1000 to 3000 ft
1500m to 5 km
500 to 1000 ft
800 to 1500m
200 to 500 ft
< 800m
< 200 ft
Symbols :   Thunderstorms  Fog  Heavy snow  Heavy precipitations  Wind > 20 kt
SIGMETs :     Misc.  Thunderstorms  Icing  Turbulence  Mountain Waves  Volcanic Ashes







- Airport Elevation : 788 ft
- IATA code : DCM
- Download approach charts


LFCK - Castres-Mazamet

CURRENT METAR :
  • 121530Z AUTO 36008KT 9999 FEW016 SCT031 05/02 Q1019 NOSIG

EXPIRED METARs :
  • 121500Z AUTO 34007KT 9999 FEW019 OVC030 05/02 Q1019 NOSIG
  • 121430Z AUTO 34007KT 9999 BKN018 OVC029 05/02 Q1018 NOSIG
  • 121400Z AUTO 33007KT 9999 BKN015 OVC026 05/02 Q1018 NOSIG
  • 121330Z AUTO 31008KT 9999 OVC018 05/02 Q1018 NOSIG
  • 121300Z AUTO 31008KT 9999 BKN018 OVC027 05/02 Q1018 NOSIG

TAF TAF LFCK
Valid from the 12 at 15:00 until the 13 at 00:00 UTC


121400Z 1215/1224 30008KT 9999 BKN020
No reported NOTAMs for that airfield.



MET'MAP, your aeronautical weather chart ! - Copyright ORBIFLY December 2007 - Disclaimer

ORBIFLY MET'MAP TEAM :

Programming & Development : Alexandra Zaïnal
Concept & Development : Baudouin d'Aumeries
Co-Development & Prog : Marc-Olivier Méhu
Technical & hardware support : Manuel Goepfert

Contact : metmap@orbifly.com




SOURCES & CREDITS :

   NOAA